Time;durP1;ratioP1;P1;durP2;ratioP2;P2;SDS_P1;SDS_P2;PMS_P1;PMS_P2;Temp;Humidity;BMP_temperature;BMP_pressure;BME280_temperature;BME280_humidity;BME280_pressure;Samples;Min_cycle;Max_cycle;Signal;HPM_P1;HPM_P2
2023/05/01 00:00:48;;;;;;;10.23;7.05;;;;;;;;;;5073963;28;20109;-75
2023/05/01 00:03:16;;;;;;;11.50;6.70;;;;;;;;;;5064826;28;20043;-75
2023/05/01 00:05:43;;;;;;;14.30;7.30;;;;;;;;;;5070983;28;20407;-74
2023/05/01 00:08:09;;;;;;;9.32;6.63;;;;;;;;;;5076641;28;20464;-75
2023/05/01 00:10:35;;;;;;;14.63;7.35;;;;;;;;;;5069935;28;20052;-74
2023/05/01 00:13:02;;;;;;;11.75;7.20;;;;;;;;;;5055454;28;21143;-74
2023/05/01 00:15:28;;;;;;;14.57;7.30;;;;;;;;;;5053802;28;20040;-76
2023/05/01 00:17:54;;;;;;;15.63;6.85;;;;;;;;;;5061315;28;20113;-75
2023/05/01 00:20:22;;;;;;;11.40;6.70;;;;;;;;;;5049054;28;20051;-75
2023/05/01 00:22:48;;;;;;;10.10;6.50;;;;;;;;;;5048993;28;20057;-75
2023/05/01 00:25:14;;;;;;;11.98;7.28;;;;;;;;;;5051328;28;20484;-75
2023/05/01 00:27:40;;;;;;;10.32;6.95;;;;;;;;;;5066783;28;20048;-75
2023/05/01 00:30:06;;;;;;;12.65;6.90;;;;;;;;;;5064860;28;20138;-75
2023/05/01 00:32:33;;;;;;;12.00;6.78;;;;;;;;;;5046311;28;20037;-75
2023/05/01 00:34:59;;;;;;;14.65;7.03;;;;;;;;;;5043960;28;20166;-75
2023/05/01 00:37:25;;;;;;;12.20;7.32;;;;;;;;;;5046053;28;20076;-75
2023/05/01 00:39:51;;;;;;;13.32;6.75;;;;;;;;;;5061654;28;20044;-75
2023/05/01 00:42:17;;;;;;;12.40;7.88;;;;;;;;;;5061517;28;20047;-75
2023/05/01 00:44:43;;;;;;;10.90;7.32;;;;;;;;;;5053419;28;20057;-73
2023/05/01 00:47:09;;;;;;;9.23;7.03;;;;;;;;;;5039063;28;20055;-74
2023/05/01 00:49:35;;;;;;;12.90;7.00;;;;;;;;;;5067022;28;20059;-74
2023/05/01 00:52:01;;;;;;;12.10;7.07;;;;;;;;;;5065899;28;20606;-75
2023/05/01 00:54:28;;;;;;;13.13;6.85;;;;;;;;;;5046856;28;20172;-76
2023/05/01 00:56:54;;;;;;;11.23;7.53;;;;;;;;;;5046884;28;20143;-74
2023/05/01 00:59:21;;;;;;;12.80;7.35;;;;;;;;;;5047485;28;20127;-74
2023/05/01 01:01:47;;;;;;;12.43;6.88;;;;;;;;;;5028038;28;20048;-74
2023/05/01 01:04:13;;;;;;;11.25;6.50;;;;;;;;;;5044497;28;20109;-74
2023/05/01 01:06:52;;;;;;;9.88;6.35;;;;;;;;;;5047582;28;20134;-74
2023/05/01 01:09:17;;;;;;;;;;;;;;;;;;5042947;28;20041;-74
2023/05/01 01:11:46;;;;;;;11.70;6.75;;;;;;;;;;5051539;28;19951;-74
2023/05/01 01:14:20;;;;;;;11.38;7.32;;;;;;;;;;5046224;28;20566;-75
2023/05/01 01:16:56;;;;;;;11.27;7.32;;;;;;;;;;5046458;28;20043;-74
2023/05/01 01:20:00;;;;;;;11.90;7.15;;;;;;;;;;5065894;28;20080;-74
2023/05/01 01:22:27;;;;;;;10.40;7.07;;;;;;;;;;4976911;28;20236;-74
2023/05/01 01:25:14;;;;;;;10.98;7.25;;;;;;;;;;4974126;28;20180;-75
2023/05/01 01:27:43;;;;;;;10.82;7.55;;;;;;;;;;5020112;28;20052;-74
2023/05/01 01:30:12;;;;;;;10.48;7.18;;;;;;;;;;5045840;28;20105;-75
2023/05/01 01:32:51;;;;;;;9.70;7.07;;;;;;;;;;5047570;28;20053;-75
2023/05/01 01:35:20;;;;;;;9.35;7.35;;;;;;;;;;5039913;28;20225;-74
2023/05/01 01:37:54;;;;;;;13.15;7.28;;;;;;;;;;5063126;28;20090;-75
2023/05/01 01:40:23;;;;;;;10.23;7.38;;;;;;;;;;5044747;28;20037;-74
2023/05/01 01:42:52;;;;;;;11.82;7.75;;;;;;;;;;5046194;28;20745;-75
2023/05/01 01:45:18;;;;;;;;;;;;;;;;;;5069720;28;20069;-75
2023/05/01 01:47:44;;;;;;;12.27;8.38;;;;;;;;;;5043673;28;19920;-74
2023/05/01 01:50:12;;;;;;;14.75;8.07;;;;;;;;;;5046432;28;20048;-75
2023/05/01 01:52:40;;;;;;;11.07;7.65;;;;;;;;;;5061828;28;20051;-74
2023/05/01 01:55:10;;;;;;;13.07;8.18;;;;;;;;;;5045184;28;20048;-74
2023/05/01 01:57:38;;;;;;;12.07;7.93;;;;;;;;;;5065742;28;20051;-74
2023/05/01 02:00:07;;;;;;;13.50;7.80;;;;;;;;;;5066134;28;20064;-74
2023/05/01 02:02:36;;;;;;;11.15;8.80;;;;;;;;;;5051828;28;20048;-75
2023/05/01 02:05:03;;;;;;;11.50;8.02;;;;;;;;;;5054194;28;20063;-74
2023/05/01 02:07:30;;;;;;;12.43;8.80;;;;;;;;;;5067237;28;20044;-74
2023/05/01 02:09:56;;;;;;;12.20;7.72;;;;;;;;;;5047540;28;20457;-74
2023/05/01 02:12:25;;;;;;;15.00;8.75;;;;;;;;;;5052050;28;20040;-74
2023/05/01 02:14:51;;;;;;;13.13;8.23;;;;;;;;;;5072589;28;20094;-74
2023/05/01 02:17:19;;;;;;;16.30;8.57;;;;;;;;;;5047588;28;20531;-75
2023/05/01 02:19:45;;;;;;;15.02;8.95;;;;;;;;;;5068453;28;20427;-75
2023/05/01 02:22:12;;;;;;;12.20;8.90;;;;;;;;;;5047248;28;20040;-76
2023/05/01 02:24:38;;;;;;;11.68;8.25;;;;;;;;;;5051411;28;20086;-75
2023/05/01 02:27:08;;;;;;;14.75;9.25;;;;;;;;;;5048829;28;20087;-74
2023/05/01 02:29:34;;;;;;;14.73;8.88;;;;;;;;;;5065848;28;20078;-74
2023/05/01 02:32:00;;;;;;;13.38;8.88;;;;;;;;;;5045532;28;20047;-74
2023/05/01 02:34:26;;;;;;;12.23;8.82;;;;;;;;;;5048766;28;20036;-74
2023/05/01 02:36:53;;;;;;;16.20;9.63;;;;;;;;;;5048530;28;20496;-74
2023/05/01 02:39:19;;;;;;;18.38;9.23;;;;;;;;;;5049275;28;20060;-75
2023/05/01 02:41:45;;;;;;;11.60;8.73;;;;;;;;;;5074706;28;20138;-74
2023/05/01 02:44:12;;;;;;;13.30;9.10;;;;;;;;;;5050692;28;20044;-75
2023/05/01 02:46:38;;;;;;;12.65;9.05;;;;;;;;;;5052543;28;20056;-74
2023/05/01 02:49:05;;;;;;;12.88;9.10;;;;;;;;;;5034474;28;20502;-74
2023/05/01 02:51:31;;;;;;;13.73;9.10;;;;;;;;;;5033049;28;20123;-75
2023/05/01 02:53:58;;;;;;;16.55;8.80;;;;;;;;;;5057201;28;20048;-75
2023/05/01 02:56:28;;;;;;;14.75;9.07;;;;;;;;;;5056597;28;20518;-75
2023/05/01 02:58:54;;;;;;;15.48;9.40;;;;;;;;;;5053580;28;20157;-75
2023/05/01 03:01:20;;;;;;;14.93;8.95;;;;;;;;;;5048247;28;20048;-76
2023/05/01 03:03:46;;;;;;;13.00;8.88;;;;;;;;;;5048165;28;20048;-74
2023/05/01 03:06:15;;;;;;;15.38;8.82;;;;;;;;;;5048777;28;20044;-76
2023/05/01 03:08:41;;;;;;;13.50;8.52;;;;;;;;;;5072469;28;20113;-74
2023/05/01 03:11:08;;;;;;;13.23;9.02;;;;;;;;;;5068589;28;20041;-75
2023/05/01 03:13:34;;;;;;;12.55;8.68;;;;;;;;;;5064030;28;20053;-75
2023/05/01 03:16:00;;;;;;;13.48;9.18;;;;;;;;;;5050989;28;20566;-74
2023/05/01 03:18:27;;;;;;;14.60;9.30;;;;;;;;;;5067309;28;20048;-75
2023/05/01 03:20:55;;;;;;;14.30;9.25;;;;;;;;;;5067390;28;20131;-74
2023/05/01 03:23:22;;;;;;;13.88;9.20;;;;;;;;;;5063931;28;20051;-75
2023/05/01 03:25:48;;;;;;;12.02;8.77;;;;;;;;;;5069102;28;20055;-74
2023/05/01 03:28:15;;;;;;;11.88;8.90;;;;;;;;;;5048280;28;20048;-75
2023/05/01 03:30:41;;;;;;;14.07;9.60;;;;;;;;;;5047291;28;20040;-75
2023/05/01 03:33:07;;;;;;;15.68;9.23;;;;;;;;;;5068980;28;20036;-75
2023/05/01 03:35:33;;;;;;;15.40;9.48;;;;;;;;;;5046844;28;20126;-75
2023/05/01 03:37:59;;;;;;;13.13;9.68;;;;;;;;;;5047151;28;20040;-74
2023/05/01 03:40:25;;;;;;;13.38;8.68;;;;;;;;;;5043093;28;20138;-73
2023/05/01 03:42:51;;;;;;;13.82;8.93;;;;;;;;;;5050893;28;20432;-74
2023/05/01 03:45:17;;;;;;;14.93;10.02;;;;;;;;;;5070521;28;20052;-74
2023/05/01 03:47:43;;;;;;;14.30;10.15;;;;;;;;;;5052688;28;20131;-73
2023/05/01 03:50:10;;;;;;;13.77;9.23;;;;;;;;;;5065151;28;20037;-74
2023/05/01 03:52:36;;;;;;;17.95;9.32;;;;;;;;;;5047887;28;20429;-75
2023/05/01 03:55:02;;;;;;;13.70;8.93;;;;;;;;;;5066863;28;20058;-75
2023/05/01 03:57:28;;;;;;;17.75;9.77;;;;;;;;;;5031046;28;20052;-75
2023/05/01 03:59:54;;;;;;;11.88;9.13;;;;;;;;;;5043802;28;20134;-76
2023/05/01 04:02:20;;;;;;;16.05;9.57;;;;;;;;;;5044677;28;20052;-75
2023/05/01 04:04:46;;;;;;;14.98;9.40;;;;;;;;;;5067983;28;20039;-74
2023/05/01 04:07:13;;;;;;;14.75;9.77;;;;;;;;;;5063330;28;20381;-75
2023/05/01 04:09:38;;;;;;;17.23;10.10;;;;;;;;;;5047886;28;20051;-74
2023/05/01 04:12:05;;;;;;;17.17;10.52;;;;;;;;;;5047457;28;20044;-75
2023/05/01 04:14:31;;;;;;;19.45;10.27;;;;;;;;;;5063853;28;20580;-74
2023/05/01 04:16:57;;;;;;;18.60;10.63;;;;;;;;;;5046451;28;20534;-74
2023/05/01 04:19:23;;;;;;;21.25;10.68;;;;;;;;;;5063475;28;20040;-74
2023/05/01 04:21:49;;;;;;;18.55;11.05;;;;;;;;;;5068272;28;20423;-75
2023/05/01 04:24:15;;;;;;;17.85;10.98;;;;;;;;;;5064247;28;20032;-73
2023/05/01 04:26:42;;;;;;;14.18;10.90;;;;;;;;;;5063943;28;20051;-75
2023/05/01 04:29:08;;;;;;;20.25;11.77;;;;;;;;;;5062992;28;20171;-74
2023/05/01 04:31:34;;;;;;;15.90;11.13;;;;;;;;;;5064125;28;20442;-75
2023/05/01 04:34:01;;;;;;;15.52;11.02;;;;;;;;;;5048498;28;20036;-74
2023/05/01 04:36:28;;;;;;;19.40;11.57;;;;;;;;;;5056162;28;20036;-74
2023/05/01 04:38:54;;;;;;;16.85;10.77;;;;;;;;;;5044886;28;20044;-74
2023/05/01 04:41:20;;;;;;;20.65;12.18;;;;;;;;;;5042832;28;20447;-73
2023/05/01 04:43:46;;;;;;;19.83;11.57;;;;;;;;;;5044815;28;20665;-74
2023/05/01 04:46:12;;;;;;;17.35;10.93;;;;;;;;;;5068902;28;20408;-74
2023/05/01 04:48:38;;;;;;;16.23;10.85;;;;;;;;;;5047870;28;20063;-74
2023/05/01 04:51:04;;;;;;;16.42;11.52;;;;;;;;;;5051358;28;20047;-74
2023/05/01 04:53:31;;;;;;;16.83;11.68;;;;;;;;;;5032671;28;20040;-74
2023/05/01 04:55:57;;;;;;;17.55;11.52;;;;;;;;;;5047110;28;20032;-75
2023/05/01 04:58:23;;;;;;;19.45;12.10;;;;;;;;;;5061314;28;20756;-74
2023/05/01 05:00:49;;;;;;;18.45;11.50;;;;;;;;;;5066954;28;20028;-75
2023/05/01 05:03:17;;;;;;;22.02;11.20;;;;;;;;;;5042284;28;20056;-74
2023/05/01 05:05:45;;;;;;;19.75;11.40;;;;;;;;;;5063198;28;20078;-74
2023/05/01 05:08:11;;;;;;;17.52;11.02;;;;;;;;;;5066203;28;20044;-74
2023/05/01 05:10:37;;;;;;;18.83;11.00;;;;;;;;;;5069340;28;20044;-75
2023/05/01 05:13:03;;;;;;;14.48;10.55;;;;;;;;;;5052371;28;20047;-75
2023/05/01 05:15:29;;;;;;;16.52;10.52;;;;;;;;;;5068155;28;20040;-77
2023/05/01 05:17:55;;;;;;;15.05;10.18;;;;;;;;;;5050944;28;20059;-76
2023/05/01 05:20:21;;;;;;;15.68;10.10;;;;;;;;;;5070443;28;20036;-76
2023/05/01 05:22:47;;;;;;;15.00;10.57;;;;;;;;;;5075470;28;20235;-75
2023/05/01 05:25:13;;;;;;;17.92;10.20;;;;;;;;;;5053090;28;20089;-75
2023/05/01 05:27:39;;;;;;;16.10;10.10;;;;;;;;;;5052636;28;20126;-75
2023/05/01 05:30:05;;;;;;;17.50;10.32;;;;;;;;;;5046249;28;20055;-75
2023/05/01 05:32:32;;;;;;;16.60;10.05;;;;;;;;;;5068507;28;20114;-75
2023/05/01 05:34:58;;;;;;;17.17;9.95;;;;;;;;;;5059094;28;20040;-76
2023/05/01 05:37:24;;;;;;;18.75;10.45;;;;;;;;;;5045702;28;20045;-76
2023/05/01 05:39:54;;;;;;;18.90;10.50;;;;;;;;;;5045097;28;20047;-75
2023/05/01 05:42:20;;;;;;;16.48;10.90;;;;;;;;;;5051161;28;20059;-75
2023/05/01 05:44:46;;;;;;;16.70;10.68;;;;;;;;;;5049778;28;20060;-76
2023/05/01 05:47:12;;;;;;;18.63;11.07;;;;;;;;;;5067234;28;20064;-75
2023/05/01 05:49:38;;;;;;;15.73;10.15;;;;;;;;;;5050256;28;20059;-75
2023/05/01 05:52:04;;;;;;;21.05;10.20;;;;;;;;;;5047889;28;20051;-76
2023/05/01 05:54:32;;;;;;;13.57;9.75;;;;;;;;;;5050838;28;20032;-76
2023/05/01 05:57:02;;;;;;;18.35;11.25;;;;;;;;;;5068721;28;20561;-76
2023/05/01 05:59:28;;;;;;;13.65;10.45;;;;;;;;;;5072093;28;20622;-75
2023/05/01 06:01:54;;;;;;;14.82;10.35;;;;;;;;;;5064431;28;20044;-76
2023/05/01 06:04:20;;;;;;;19.60;10.60;;;;;;;;;;5069019;28;20043;-75
2023/05/01 06:06:46;;;;;;;15.73;10.40;;;;;;;;;;5051246;28;20426;-76
2023/05/01 06:09:13;;;;;;;17.83;10.63;;;;;;;;;;5053798;28;20044;-76
2023/05/01 06:11:39;;;;;;;17.08;10.93;;;;;;;;;;5053038;28;20055;-75
2023/05/01 06:14:06;;;;;;;20.63;11.18;;;;;;;;;;5049779;28;20040;-75
2023/05/01 06:16:33;;;;;;;13.43;10.02;;;;;;;;;;5048975;28;20055;-76
2023/05/01 06:18:59;;;;;;;14.07;10.60;;;;;;;;;;5068850;28;20044;-76
2023/05/01 06:21:25;;;;;;;16.00;10.68;;;;;;;;;;5049606;28;20036;-75
2023/05/01 06:23:51;;;;;;;14.77;10.00;;;;;;;;;;5061768;28;20054;-75
2023/05/01 06:26:17;;;;;;;17.15;10.15;;;;;;;;;;5057482;28;20238;-76
2023/05/01 06:28:44;;;;;;;16.73;10.45;;;;;;;;;;5048306;28;20044;-76
2023/05/01 06:31:10;;;;;;;15.98;10.73;;;;;;;;;;5063537;28;20043;-74
2023/05/01 06:33:36;;;;;;;13.77;9.55;;;;;;;;;;5067384;28;21736;-73
2023/05/01 06:36:02;;;;;;;14.50;9.93;;;;;;;;;;5064999;28;20070;-74
2023/05/01 06:38:28;;;;;;;14.98;9.27;;;;;;;;;;5040952;28;20056;-75
2023/05/01 06:40:54;;;;;;;14.43;9.38;;;;;;;;;;5064466;28;20445;-74
2023/05/01 06:43:20;;;;;;;14.68;8.93;;;;;;;;;;5056809;28;21545;-74
2023/05/01 06:45:46;;;;;;;16.23;9.48;;;;;;;;;;5044716;28;20049;-74
2023/05/01 06:48:12;;;;;;;15.27;9.02;;;;;;;;;;5050046;28;20056;-75
2023/05/01 06:50:38;;;;;;;15.05;8.95;;;;;;;;;;5044887;28;20044;-75
2023/05/01 06:53:04;;;;;;;13.55;8.88;;;;;;;;;;5041193;28;20052;-76
2023/05/01 06:55:32;;;;;;;15.43;9.35;;;;;;;;;;5064186;28;20176;-75
2023/05/01 06:57:58;;;;;;;13.52;9.18;;;;;;;;;;5046300;28;20048;-75
2023/05/01 07:00:24;;;;;;;17.77;10.05;;;;;;;;;;5061866;28;20079;-75
2023/05/01 07:02:50;;;;;;;16.88;8.80;;;;;;;;;;5067234;28;20593;-74
2023/05/01 07:05:17;;;;;;;11.15;8.43;;;;;;;;;;5045027;28;20074;-75
2023/05/01 07:07:43;;;;;;;17.75;9.07;;;;;;;;;;5054429;28;20137;-75
2023/05/01 07:10:09;;;;;;;14.30;8.32;;;;;;;;;;5046049;28;21005;-74
2023/05/01 07:12:35;;;;;;;17.27;8.65;;;;;;;;;;5060931;28;20048;-75
2023/05/01 07:15:01;;;;;;;13.38;8.50;;;;;;;;;;5065132;28;20041;-75
2023/05/01 07:17:28;;;;;;;15.20;8.43;;;;;;;;;;5045396;28;20406;-74
2023/05/01 07:19:54;;;;;;;16.42;9.30;;;;;;;;;;5064403;28;20078;-75
2023/05/01 07:22:20;;;;;;;13.55;8.38;;;;;;;;;;5064859;28;20083;-74
2023/05/01 07:24:47;;;;;;;14.50;8.60;;;;;;;;;;5055118;28;20044;-75
2023/05/01 07:27:13;;;;;;;14.13;8.73;;;;;;;;;;5048199;28;20051;-75
2023/05/01 07:29:39;;;;;;;12.73;8.07;;;;;;;;;;5072971;28;20903;-75
2023/05/01 07:32:05;;;;;;;12.65;8.82;;;;;;;;;;5061129;28;20134;-74
2023/05/01 07:34:31;;;;;;;11.65;8.13;;;;;;;;;;5056041;28;20044;-75
2023/05/01 07:36:57;;;;;;;16.65;8.70;;;;;;;;;;5060736;28;20057;-74
2023/05/01 07:39:23;;;;;;;15.32;8.45;;;;;;;;;;5074977;28;20044;-75
2023/05/01 07:41:49;;;;;;;15.25;8.35;;;;;;;;;;5075456;28;20044;-74
2023/05/01 07:44:15;;;;;;;14.80;8.05;;;;;;;;;;5062854;28;20042;-74
2023/05/01 07:46:42;;;;;;;17.63;8.15;;;;;;;;;;5065753;28;20059;-74
2023/05/01 07:49:08;;;;;;;15.43;8.15;;;;;;;;;;5074951;28;20568;-74
2023/05/01 07:51:34;;;;;;;12.50;7.47;;;;;;;;;;5057401;28;20154;-74
2023/05/01 07:54:03;;;;;;;15.95;8.23;;;;;;;;;;5058745;28;20080;-76
2023/05/01 07:56:29;;;;;;;15.35;8.18;;;;;;;;;;5052498;28;20076;-74
2023/05/01 07:58:55;;;;;;;13.23;8.65;;;;;;;;;;5053950;28;20142;-74
2023/05/01 08:01:21;;;;;;;12.50;8.07;;;;;;;;;;5052706;28;20040;-76
2023/05/01 08:03:47;;;;;;;11.05;8.30;;;;;;;;;;5050811;28;20120;-73
2023/05/01 08:06:13;;;;;;;12.38;8.43;;;;;;;;;;5060498;28;20393;-73
2023/05/01 08:08:39;;;;;;;12.98;8.35;;;;;;;;;;5071338;28;20044;-74
2023/05/01 08:11:05;;;;;;;15.48;8.20;;;;;;;;;;5050853;28;21255;-75
2023/05/01 08:13:32;;;;;;;14.77;8.07;;;;;;;;;;5050748;28;20469;-75
2023/05/01 08:16:02;;;;;;;11.73;7.97;;;;;;;;;;5065753;28;20115;-75
2023/05/01 08:18:28;;;;;;;14.45;8.80;;;;;;;;;;5067596;28;20040;-74
2023/05/01 08:20:54;;;;;;;12.57;7.85;;;;;;;;;;5066666;28;20406;-75
2023/05/01 08:23:20;;;;;;;13.85;7.65;;;;;;;;;;5064304;28;20044;-74
2023/05/01 08:25:46;;;;;;;10.82;7.43;;;;;;;;;;5052589;28;20396;-74
2023/05/01 08:28:13;;;;;;;14.75;7.50;;;;;;;;;;5067411;28;20040;-74
2023/05/01 08:30:39;;;;;;;12.00;7.70;;;;;;;;;;5063745;28;20048;-75
2023/05/01 08:33:05;;;;;;;16.92;7.60;;;;;;;;;;5048597;28;20051;-74
2023/05/01 08:35:31;;;;;;;16.85;7.55;;;;;;;;;;5069519;28;20040;-75
2023/05/01 08:37:57;;;;;;;12.68;7.00;;;;;;;;;;5055189;28;20042;-76
2023/05/01 08:40:23;;;;;;;14.25;7.10;;;;;;;;;;5048614;28;20056;-75
2023/05/01 08:42:50;;;;;;;11.85;7.60;;;;;;;;;;5068153;28;20044;-75
2023/05/01 08:45:20;;;;;;;11.82;7.47;;;;;;;;;;5032139;28;20052;-75
2023/05/01 08:47:47;;;;;;;12.90;6.82;;;;;;;;;;5066424;28;20064;-76
2023/05/01 08:50:13;;;;;;;13.90;7.38;;;;;;;;;;5031323;28;20036;-75
2023/05/01 08:52:43;;;;;;;10.68;7.22;;;;;;;;;;5045515;28;20094;-75
2023/05/01 08:55:12;;;;;;;11.68;6.97;;;;;;;;;;5046254;28;20044;-74
2023/05/01 08:57:38;;;;;;;10.57;6.57;;;;;;;;;;5046763;28;20170;-75
2023/05/01 09:00:04;;;;;;;12.38;6.72;;;;;;;;;;5069430;28;20036;-73
2023/05/01 09:02:34;;;;;;;10.07;6.50;;;;;;;;;;5062143;28;20032;-75
2023/05/01 09:05:02;;;;;;;9.68;6.38;;;;;;;;;;5052075;28;20045;-74
2023/05/01 09:07:28;;;;;;;;;;;;;;;;;;5063348;28;20173;-76
2023/05/01 09:09:54;;;;;;;13.75;6.95;;;;;;;;;;5039319;28;20357;-74
2023/05/01 09:12:25;;;;;;;13.95;6.18;;;;;;;;;;5068687;28;20036;-75
2023/05/01 09:14:52;;;;;;;12.95;6.50;;;;;;;;;;5050240;28;20093;-75
2023/05/01 09:17:18;;;;;;;13.63;6.35;;;;;;;;;;5052273;28;20044;-75
2023/05/01 09:19:44;;;;;;;12.38;5.40;;;;;;;;;;5071378;28;20044;-75
2023/05/01 09:22:10;;;;;;;8.57;5.55;;;;;;;;;;5030442;28;20059;-75
2023/05/01 09:24:36;;;;;;;10.60;5.10;;;;;;;;;;5064164;28;20040;-75
2023/05/01 09:27:02;;;;;;;8.60;4.93;;;;;;;;;;5068468;28;20032;-74
2023/05/01 09:29:49;;;;;;;12.13;4.75;;;;;;;;;;5047049;28;20530;-75
2023/05/01 09:32:29;;;;;;;12.48;4.43;;;;;;;;;;5062650;28;20040;-75
2023/05/01 09:34:56;;;;;;;9.00;4.30;;;;;;;;;;5052415;28;20059;-74
2023/05/01 09:37:28;;;;;;;8.38;4.10;;;;;;;;;;5066102;28;20119;-74
2023/05/01 09:40:05;;;;;;;7.95;3.45;;;;;;;;;;5046658;28;20121;-74
2023/05/01 09:42:31;;;;;;;11.15;3.00;;;;;;;;;;5047143;28;20044;-75
2023/05/01 09:44:59;;;;;;;5.53;2.38;;;;;;;;;;5061332;28;20041;-74
2023/05/01 09:47:28;;;;;;;8.32;2.95;;;;;;;;;;5069385;28;20036;-75
2023/05/01 09:49:58;;;;;;;8.10;3.10;;;;;;;;;;5053385;28;20048;-74
2023/05/01 09:52:28;;;;;;;10.77;2.97;;;;;;;;;;5049440;28;20090;-75
2023/05/01 09:55:13;;;;;;;8.98;3.90;;;;;;;;;;5033740;28;20055;-75
2023/05/01 09:57:41;;;;;;;7.88;3.90;;;;;;;;;;5040847;28;20949;-75
2023/05/01 10:00:08;;;;;;;9.93;3.22;;;;;;;;;;5067469;28;20044;-74
2023/05/01 10:02:35;;;;;;;9.90;3.40;;;;;;;;;;5062285;28;20801;-74
2023/05/01 10:05:01;;;;;;;9.30;3.88;;;;;;;;;;5049196;28;20055;-75
2023/05/01 10:07:28;;;;;;;9.38;4.38;;;;;;;;;;5063757;28;20217;-75
2023/05/01 10:09:54;;;;;;;9.68;4.20;;;;;;;;;;5045999;28;22015;-75
2023/05/01 10:12:28;;;;;;;7.03;3.92;;;;;;;;;;5030450;28;20052;-75
2023/05/01 10:14:54;;;;;;;12.38;4.18;;;;;;;;;;5065792;28;20050;-75
2023/05/01 10:17:20;;;;;;;8.32;3.40;;;;;;;;;;5050199;28;20048;-74
2023/05/01 10:19:47;;;;;;;8.30;4.07;;;;;;;;;;5064536;28;20040;-74
2023/05/01 10:22:13;;;;;;;7.88;3.55;;;;;;;;;;5071551;28;20044;-75
2023/05/01 10:24:40;;;;;;;5.25;3.35;;;;;;;;;;5067442;28;20048;-74
2023/05/01 10:27:06;;;;;;;9.30;3.30;;;;;;;;;;5078518;28;20079;-74
2023/05/01 10:29:35;;;;;;;9.13;3.60;;;;;;;;;;5070557;28;20102;-74
2023/05/01 10:32:02;;;;;;;8.93;3.33;;;;;;;;;;5051606;28;20402;-75
2023/05/01 10:34:29;;;;;;;8.27;3.08;;;;;;;;;;5068372;28;20082;-75
2023/05/01 10:37:02;;;;;;;10.20;3.00;;;;;;;;;;5070501;28;20046;-75
2023/05/01 10:39:31;;;;;;;6.88;3.28;;;;;;;;;;5049120;28;20113;-75
2023/05/01 10:41:57;;;;;;;8.43;2.80;;;;;;;;;;5030715;28;20081;-74
2023/05/01 10:44:24;;;;;;;7.45;2.47;;;;;;;;;;5066951;28;20044;-75
2023/05/01 10:46:50;;;;;;;5.93;2.97;;;;;;;;;;5070894;28;20052;-74
2023/05/01 10:49:16;;;;;;;5.88;2.42;;;;;;;;;;5055210;28;20094;-75
2023/05/01 10:51:57;;;;;;;7.35;2.65;;;;;;;;;;5054816;28;20542;-74
2023/05/01 10:54:30;;;;;;;7.90;2.85;;;;;;;;;;5047531;28;20047;-74
2023/05/01 10:57:00;;;;;;;8.20;2.80;;;;;;;;;;5053607;28;20060;-74
2023/05/01 10:59:27;;;;;;;5.88;2.67;;;;;;;;;;5046311;28;20044;-74
2023/05/01 11:01:53;;;;;;;9.00;2.70;;;;;;;;;;5045712;28;20157;-74
2023/05/01 11:04:22;;;;;;;6.05;2.40;;;;;;;;;;5052534;28;20067;-74
2023/05/01 11:06:57;;;;;;;7.25;2.80;;;;;;;;;;5031832;28;20052;-74
2023/05/01 11:09:37;;;;;;;5.63;2.58;;;;;;;;;;5064605;28;20036;-74
2023/05/01 11:12:04;;;;;;;3.42;1.50;;;;;;;;;;5066630;28;20133;-74
2023/05/01 11:14:49;;;;;;;3.22;1.40;;;;;;;;;;5065582;28;20097;-74
2023/05/01 11:17:35;;;;;;;4.70;2.03;;;;;;;;;;5067513;28;20071;-74
2023/05/01 11:20:01;;;;;;;3.90;1.40;;;;;;;;;;5050898;28;20036;-74
2023/05/01 11:22:27;;;;;;;5.60;1.50;;;;;;;;;;5065951;28;20605;-74
2023/05/01 11:24:53;;;;;;;4.00;1.50;;;;;;;;;;5069494;28;20482;-74
2023/05/01 11:27:20;;;;;;;3.28;1.42;;;;;;;;;;5068234;28;20126;-74
2023/05/01 11:29:47;;;;;;;2.95;1.48;;;;;;;;;;5044769;28;20518;-74
2023/05/01 11:32:17;;;;;;;5.35;1.83;;;;;;;;;;5050118;28;20044;-74
2023/05/01 11:34:44;;;;;;;2.33;1.20;;;;;;;;;;5050258;28;20061;-74
2023/05/01 11:37:10;;;;;;;2.92;1.42;;;;;;;;;;5057224;28;20129;-75
2023/05/01 11:39:36;;;;;;;9.52;1.65;;;;;;;;;;5062894;28;20561;-75
2023/05/01 11:42:06;;;;;;;3.05;1.30;;;;;;;;;;5064250;28;20055;-74
2023/05/01 11:44:32;;;;;;;3.08;1.40;;;;;;;;;;5031620;28;20056;-74
2023/05/01 11:47:00;;;;;;;4.90;1.10;;;;;;;;;;5028422;28;20041;-74
2023/05/01 11:49:29;;;;;;;2.47;1.33;;;;;;;;;;5038511;28;20052;-75
2023/05/01 11:51:56;;;;;;;4.72;1.50;;;;;;;;;;5037827;28;20079;-74
2023/05/01 11:54:22;;;;;;;2.55;1.08;;;;;;;;;;5046054;28;20056;-74
2023/05/01 11:56:56;;;;;;;3.00;1.20;;;;;;;;;;5049561;28;20055;-75
2023/05/01 11:59:23;;;;;;;4.15;1.50;;;;;;;;;;5048516;28;20051;-75
2023/05/01 12:01:49;;;;;;;4.57;1.25;;;;;;;;;;5050793;28;20496;-75
2023/05/01 12:04:23;;;;;;;3.83;1.40;;;;;;;;;;5041098;28;20529;-75
2023/05/01 12:06:49;;;;;;;4.72;1.77;;;;;;;;;;5051477;28;20049;-74
2023/05/01 12:09:22;;;;;;;7.25;2.30;;;;;;;;;;5046914;28;20490;-74
2023/05/01 12:11:50;;;;;;;5.18;2.45;;;;;;;;;;5030863;28;20041;-76
2023/05/01 12:14:16;;;;;;;6.78;2.67;;;;;;;;;;5050106;28;20063;-76
2023/05/01 12:16:43;;;;;;;7.10;2.80;;;;;;;;;;5045028;28;20525;-76
2023/05/01 12:19:10;;;;;;;5.88;2.63;;;;;;;;;;5051908;28;20052;-75
2023/05/01 12:21:37;;;;;;;5.93;1.95;;;;;;;;;;5053390;28;20037;-75
2023/05/01 12:24:08;;;;;;;4.00;1.90;;;;;;;;;;5037849;28;20056;-74
2023/05/01 12:26:34;;;;;;;6.22;2.40;;;;;;;;;;5047276;28;20040;-75
2023/05/01 12:29:01;;;;;;;3.85;1.60;;;;;;;;;;5051771;28;20048;-74
2023/05/01 12:31:28;;;;;;;3.47;1.50;;;;;;;;;;5053250;28;20562;-76
2023/05/01 12:34:01;;;;;;;2.75;1.67;;;;;;;;;;5051334;28;20056;-76
2023/05/01 12:36:28;;;;;;;4.20;1.50;;;;;;;;;;5049575;28;20049;-74
2023/05/01 12:38:59;;;;;;;3.10;1.50;;;;;;;;;;5040439;28;20052;-77
2023/05/01 12:41:44;;;;;;;5.40;1.70;;;;;;;;;;5051428;28;20342;-77
2023/05/01 12:44:17;;;;;;;3.42;1.27;;;;;;;;;;5051071;28;20425;-77
2023/05/01 12:46:44;;;;;;;3.15;1.52;;;;;;;;;;5028639;28;20057;-77
2023/05/01 12:49:15;;;;;;;3.25;1.70;;;;;;;;;;5055456;28;20056;-78
2023/05/01 12:51:45;;;;;;;3.35;1.80;;;;;;;;;;5058137;28;20044;-77
2023/05/01 12:54:13;;;;;;;3.58;1.60;;;;;;;;;;5042575;28;20044;-77
2023/05/01 12:56:39;;;;;;;4.30;1.83;;;;;;;;;;5052380;28;20540;-76
2023/05/01 12:59:05;;;;;;;3.47;1.70;;;;;;;;;;5046877;28;20040;-77
2023/05/01 13:01:31;;;;;;;2.97;1.60;;;;;;;;;;5024625;28;20075;-77
2023/05/01 13:03:57;;;;;;;4.93;1.95;;;;;;;;;;5037441;28;20042;-76
2023/05/01 13:06:32;;;;;;;3.75;2.00;;;;;;;;;;5032784;28;20196;-77
2023/05/01 13:09:06;;;;;;;5.53;2.38;;;;;;;;;;5047359;28;20048;-76
2023/05/01 13:11:32;;;;;;;3.92;2.17;;;;;;;;;;5052405;28;20482;-76
2023/05/01 13:14:06;;;;;;;5.07;2.35;;;;;;;;;;5047546;28;20052;-76
2023/05/01 13:16:32;;;;;;;4.78;2.50;;;;;;;;;;5051031;28;20127;-75
2023/05/01 13:18:58;;;;;;;4.57;2.30;;;;;;;;;;5054043;28;20044;-77
2023/05/01 13:21:25;;;;;;;4.35;2.20;;;;;;;;;;5058492;28;20610;-76
2023/05/01 13:23:53;;;;;;;16.80;2.72;;;;;;;;;;5037270;28;20804;-77
2023/05/01 13:26:25;;;;;;;4.82;2.65;;;;;;;;;;5051339;28;20064;-76
2023/05/01 13:28:51;;;;;;;4.85;2.10;;;;;;;;;;5030510;28;20503;-76
2023/05/01 13:31:17;;;;;;;7.53;2.35;;;;;;;;;;5046786;28;20040;-77
2023/05/01 13:33:43;;;;;;;5.80;2.05;;;;;;;;;;5032726;28;20052;-76
2023/05/01 13:36:13;;;;;;;4.90;1.60;;;;;;;;;;5053189;28;20052;-77
2023/05/01 13:38:44;;;;;;;6.25;2.13;;;;;;;;;;5045491;28;20057;-76
2023/05/01 13:41:20;;;;;;;4.55;1.95;;;;;;;;;;5050520;28;20041;-75
2023/05/01 13:43:46;;;;;;;5.00;1.63;;;;;;;;;;5042242;28;20041;-77
2023/05/01 13:46:14;;;;;;;6.50;1.65;;;;;;;;;;5052773;28;20060;-76
2023/05/01 13:48:40;;;;;;;3.00;1.77;;;;;;;;;;5044807;28;20040;-77
2023/05/01 13:51:09;;;;;;;3.88;1.52;;;;;;;;;;5043337;28;20076;-77
2023/05/01 13:53:36;;;;;;;3.67;1.90;;;;;;;;;;5055643;28;20036;-77
2023/05/01 13:56:05;;;;;;;3.58;1.60;;;;;;;;;;5054393;28;20037;-77
2023/05/01 13:58:32;;;;;;;3.75;1.60;;;;;;;;;;5058565;28;20063;-76
2023/05/01 14:00:59;;;;;;;3.60;1.50;;;;;;;;;;5061092;28;20066;-77
2023/05/01 14:03:25;;;;;;;4.40;1.60;;;;;;;;;;5048724;28;20500;-76
2023/05/01 14:05:51;;;;;;;3.33;1.50;;;;;;;;;;5044832;28;20099;-78
2023/05/01 14:08:22;;;;;;;3.90;1.70;;;;;;;;;;5050395;28;20154;-76
2023/05/01 14:10:48;;;;;;;6.60;1.90;;;;;;;;;;5049539;28;20056;-76
2023/05/01 14:13:17;;;;;;;4.00;1.63;;;;;;;;;;5046140;28;20082;-77
2023/05/01 14:15:43;;;;;;;6.78;1.65;;;;;;;;;;5053467;28;20048;-78
2023/05/01 14:18:11;;;;;;;4.68;1.90;;;;;;;;;;5044606;28;20415;-76
2023/05/01 14:20:38;;;;;;;6.13;1.85;;;;;;;;;;5044386;28;20052;-77
2023/05/01 14:23:05;;;;;;;3.38;1.63;;;;;;;;;;5054087;28;20044;-76
2023/05/01 14:25:33;;;;;;;3.50;1.52;;;;;;;;;;5047820;28;20041;-76
2023/05/01 14:28:01;;;;;;;5.57;1.42;;;;;;;;;;5045771;28;20058;-77
2023/05/01 14:30:36;;;;;;;3.28;1.70;;;;;;;;;;5036200;28;20044;-77
2023/05/01 14:33:02;;;;;;;4.05;1.50;;;;;;;;;;5047444;28;20048;-77
2023/05/01 14:35:28;;;;;;;5.05;2.63;;;;;;;;;;5029711;28;20064;-76